Terminal Aerodrome Forecast
Issued by NWS

Home | Current Version | Previous Version | Text Only | Print | Product List | Glossary Off
Versions: 1 2 3 4 5 6 7 8 9 10 11

827
FTUS43 KGRB 202237 AAB
TAFAUW
TAF AMD
KAUW 202237Z 2023/2118 29008KT 6SM -DZ BR SCT009 BKN015
      TEMPO 2023/2103 4SM -RA BR BKN009
     FM210300 31011KT P6SM OVC018
     FM210600 32012KT P6SM OVC020
     FM211400 34012KT P6SM BKN025
      TEMPO 2115/2118 SCT025=

USA.gov is the U.S. government's official web portal to all federal, state and local government web resources and services.